sensor_id;sensor_type;location;lat;lon;timestamp;P1;durP1;ratioP1;P2;durP2;ratioP2
49834;SDS011;35729;52.090;13.162;2023-02-24T00:02:20;63.72;;;23.35;;
49834;SDS011;35729;52.090;13.162;2023-02-24T00:04:48;65.43;;;25.02;;
49834;SDS011;35729;52.090;13.162;2023-02-24T00:07:18;69.68;;;25.90;;
49834;SDS011;35729;52.090;13.162;2023-02-24T00:09:49;66.20;;;25.48;;
49834;SDS011;35729;52.090;13.162;2023-02-24T00:12:18;67.45;;;23.80;;
49834;SDS011;35729;52.090;13.162;2023-02-24T00:14:49;70.95;;;23.25;;
49834;SDS011;35729;52.090;13.162;2023-02-24T00:17:17;64.18;;;24.02;;
49834;SDS011;35729;52.090;13.162;2023-02-24T00:19:48;68.93;;;23.35;;
49834;SDS011;35729;52.090;13.162;2023-02-24T00:22:22;73.18;;;24.00;;
49834;SDS011;35729;52.090;13.162;2023-02-24T00:25:00;74.35;;;24.45;;
49834;SDS011;35729;52.090;13.162;2023-02-24T00:27:28;74.68;;;23.58;;
49834;SDS011;35729;52.090;13.162;2023-02-24T00:29:57;70.35;;;22.55;;
49834;SDS011;35729;52.090;13.162;2023-02-24T00:32:25;74.18;;;23.65;;
49834;SDS011;35729;52.090;13.162;2023-02-24T00:34:54;70.22;;;23.40;;
49834;SDS011;35729;52.090;13.162;2023-02-24T00:37:22;66.22;;;21.95;;
49834;SDS011;35729;52.090;13.162;2023-02-24T00:39:51;78.80;;;23.40;;
49834;SDS011;35729;52.090;13.162;2023-02-24T00:42:25;67.30;;;22.67;;
49834;SDS011;35729;52.090;13.162;2023-02-24T00:44:53;67.43;;;21.48;;
49834;SDS011;35729;52.090;13.162;2023-02-24T00:47:22;67.43;;;21.48;;
49834;SDS011;35729;52.090;13.162;2023-02-24T00:49:51;66.78;;;22.23;;
49834;SDS011;35729;52.090;13.162;2023-02-24T00:52:20;68.88;;;22.67;;
49834;SDS011;35729;52.090;13.162;2023-02-24T00:54:51;68.38;;;20.90;;
49834;SDS011;35729;52.090;13.162;2023-02-24T00:57:20;70.57;;;21.05;;
49834;SDS011;35729;52.090;13.162;2023-02-24T00:59:51;63.40;;;21.45;;
49834;SDS011;35729;52.090;13.162;2023-02-24T01:02:22;60.60;;;20.33;;
49834;SDS011;35729;52.090;13.162;2023-02-24T01:04:50;68.45;;;22.10;;
49834;SDS011;35729;52.090;13.162;2023-02-24T01:07:19;58.25;;;19.38;;
49834;SDS011;35729;52.090;13.162;2023-02-24T01:09:48;64.25;;;21.23;;
49834;SDS011;35729;52.090;13.162;2023-02-24T01:12:18;67.20;;;20.80;;
49834;SDS011;35729;52.090;13.162;2023-02-24T01:15:02;58.00;;;19.65;;
49834;SDS011;35729;52.090;13.162;2023-02-24T01:17:34;58.70;;;20.15;;
49834;SDS011;35729;52.090;13.162;2023-02-24T01:20:03;51.78;;;19.35;;
49834;SDS011;35729;52.090;13.162;2023-02-24T01:22:48;56.85;;;18.35;;
49834;SDS011;35729;52.090;13.162;2023-02-24T01:25:18;61.92;;;18.60;;
49834;SDS011;35729;52.090;13.162;2023-02-24T01:27:47;63.25;;;20.45;;
49834;SDS011;35729;52.090;13.162;2023-02-24T01:30:20;63.20;;;18.33;;
49834;SDS011;35729;52.090;13.162;2023-02-24T01:32:48;50.95;;;18.27;;
49834;SDS011;35729;52.090;13.162;2023-02-24T01:35:17;54.00;;;18.08;;
49834;SDS011;35729;52.090;13.162;2023-02-24T01:37:45;49.60;;;17.20;;
49834;SDS011;35729;52.090;13.162;2023-02-24T01:40:14;36.85;;;13.35;;
49834;SDS011;35729;52.090;13.162;2023-02-24T01:42:45;27.23;;;9.98;;
49834;SDS011;35729;52.090;13.162;2023-02-24T01:45:21;33.10;;;10.48;;
49834;SDS011;35729;52.090;13.162;2023-02-24T01:47:52;21.67;;;7.63;;
49834;SDS011;35729;52.090;13.162;2023-02-24T01:50:24;25.38;;;8.52;;
49834;SDS011;35729;52.090;13.162;2023-02-24T01:52:57;20.83;;;8.32;;
49834;SDS011;35729;52.090;13.162;2023-02-24T01:55:29;22.42;;;6.53;;
49834;SDS011;35729;52.090;13.162;2023-02-24T01:58:02;17.27;;;6.30;;
49834;SDS011;35729;52.090;13.162;2023-02-24T02:00:38;19.80;;;6.38;;
49834;SDS011;35729;52.090;13.162;2023-02-24T02:03:11;23.50;;;6.88;;
49834;SDS011;35729;52.090;13.162;2023-02-24T02:05:46;19.70;;;6.25;;
49834;SDS011;35729;52.090;13.162;2023-02-24T02:08:16;19.67;;;5.35;;
49834;SDS011;35729;52.090;13.162;2023-02-24T02:10:46;18.10;;;5.40;;
49834;SDS011;35729;52.090;13.162;2023-02-24T02:13:17;18.70;;;5.93;;
49834;SDS011;35729;52.090;13.162;2023-02-24T02:15:53;18.05;;;6.15;;
49834;SDS011;35729;52.090;13.162;2023-02-24T02:18:35;19.08;;;5.28;;
49834;SDS011;35729;52.090;13.162;2023-02-24T02:21:26;18.85;;;5.82;;
49834;SDS011;35729;52.090;13.162;2023-02-24T02:24:30;16.67;;;4.80;;
49834;SDS011;35729;52.090;13.162;2023-02-24T02:30:22;20.85;;;5.70;;
49834;SDS011;35729;52.090;13.162;2023-02-24T02:36:04;20.20;;;5.75;;
49834;SDS011;35729;52.090;13.162;2023-02-24T02:38:42;21.23;;;5.72;;
49834;SDS011;35729;52.090;13.162;2023-02-24T02:41:20;18.65;;;5.53;;
49834;SDS011;35729;52.090;13.162;2023-02-24T02:43:55;18.67;;;6.90;;
49834;SDS011;35729;52.090;13.162;2023-02-24T02:46:33;24.30;;;6.53;;
49834;SDS011;35729;52.090;13.162;2023-02-24T02:49:11;20.58;;;6.50;;
49834;SDS011;35729;52.090;13.162;2023-02-24T02:51:48;21.67;;;6.75;;
49834;SDS011;35729;52.090;13.162;2023-02-24T02:54:22;28.02;;;6.65;;
49834;SDS011;35729;52.090;13.162;2023-02-24T02:56:56;28.55;;;6.78;;
49834;SDS011;35729;52.090;13.162;2023-02-24T02:59:30;29.98;;;11.88;;
49834;SDS011;35729;52.090;13.162;2023-02-24T03:02:02;32.78;;;12.93;;
49834;SDS011;35729;52.090;13.162;2023-02-24T03:04:39;37.55;;;8.35;;
49834;SDS011;35729;52.090;13.162;2023-02-24T03:07:13;24.83;;;8.25;;
49834;SDS011;35729;52.090;13.162;2023-02-24T03:09:45;30.80;;;8.90;;
49834;SDS011;35729;52.090;13.162;2023-02-24T03:12:18;35.35;;;7.70;;
49834;SDS011;35729;52.090;13.162;2023-02-24T03:14:50;31.60;;;9.07;;
49834;SDS011;35729;52.090;13.162;2023-02-24T03:17:24;20.65;;;5.05;;
49834;SDS011;35729;52.090;13.162;2023-02-24T03:19:56;24.85;;;5.80;;
49834;SDS011;35729;52.090;13.162;2023-02-24T03:22:42;17.85;;;5.03;;
49834;SDS011;35729;52.090;13.162;2023-02-24T03:25:16;18.90;;;4.18;;
49834;SDS011;35729;52.090;13.162;2023-02-24T03:27:49;18.90;;;3.60;;
49834;SDS011;35729;52.090;13.162;2023-02-24T03:30:23;16.15;;;4.00;;
49834;SDS011;35729;52.090;13.162;2023-02-24T03:32:55;16.15;;;3.28;;
49834;SDS011;35729;52.090;13.162;2023-02-24T03:35:30;17.80;;;3.20;;
49834;SDS011;35729;52.090;13.162;2023-02-24T03:38:05;15.70;;;3.50;;
49834;SDS011;35729;52.090;13.162;2023-02-24T03:40:35;18.65;;;3.22;;
49834;SDS011;35729;52.090;13.162;2023-02-24T03:43:05;13.60;;;2.78;;
49834;SDS011;35729;52.090;13.162;2023-02-24T03:45:41;16.27;;;2.80;;
49834;SDS011;35729;52.090;13.162;2023-02-24T03:48:10;15.63;;;2.65;;
49834;SDS011;35729;52.090;13.162;2023-02-24T03:50:40;16.30;;;2.83;;
49834;SDS011;35729;52.090;13.162;2023-02-24T03:53:21;10.70;;;2.38;;
49834;SDS011;35729;52.090;13.162;2023-02-24T03:56:00;11.18;;;2.15;;
49834;SDS011;35729;52.090;13.162;2023-02-24T03:58:41;21.38;;;3.13;;
49834;SDS011;35729;52.090;13.162;2023-02-24T04:01:21;15.85;;;2.65;;
49834;SDS011;35729;52.090;13.162;2023-02-24T04:03:58;16.35;;;2.85;;
49834;SDS011;35729;52.090;13.162;2023-02-24T04:06:33;17.95;;;3.08;;
49834;SDS011;35729;52.090;13.162;2023-02-24T04:09:14;18.88;;;3.17;;
49834;SDS011;35729;52.090;13.162;2023-02-24T04:11:51;18.92;;;3.85;;
49834;SDS011;35729;52.090;13.162;2023-02-24T04:14:27;15.30;;;2.40;;
49834;SDS011;35729;52.090;13.162;2023-02-24T04:16:59;24.95;;;4.50;;
49834;SDS011;35729;52.090;13.162;2023-02-24T04:19:35;12.73;;;2.95;;
49834;SDS011;35729;52.090;13.162;2023-02-24T04:22:06;17.17;;;1.95;;
49834;SDS011;35729;52.090;13.162;2023-02-24T04:24:40;15.27;;;2.63;;
49834;SDS011;35729;52.090;13.162;2023-02-24T04:27:13;18.42;;;2.97;;
49834;SDS011;35729;52.090;13.162;2023-02-24T04:29:45;16.02;;;3.67;;
49834;SDS011;35729;52.090;13.162;2023-02-24T04:32:17;13.20;;;2.30;;
49834;SDS011;35729;52.090;13.162;2023-02-24T04:34:49;17.48;;;3.17;;
49834;SDS011;35729;52.090;13.162;2023-02-24T04:37:18;10.55;;;2.03;;
49834;SDS011;35729;52.090;13.162;2023-02-24T04:39:50;17.10;;;2.58;;
49834;SDS011;35729;52.090;13.162;2023-02-24T04:42:19;13.15;;;2.28;;
49834;SDS011;35729;52.090;13.162;2023-02-24T04:44:47;20.73;;;2.30;;
49834;SDS011;35729;52.090;13.162;2023-02-24T04:47:17;16.48;;;1.90;;
49834;SDS011;35729;52.090;13.162;2023-02-24T04:49:46;13.65;;;2.78;;
49834;SDS011;35729;52.090;13.162;2023-02-24T04:52:15;8.70;;;2.13;;
49834;SDS011;35729;52.090;13.162;2023-02-24T04:54:44;13.55;;;2.40;;
49834;SDS011;35729;52.090;13.162;2023-02-24T04:57:16;15.75;;;2.13;;
49834;SDS011;35729;52.090;13.162;2023-02-24T04:59:44;11.77;;;1.70;;
49834;SDS011;35729;52.090;13.162;2023-02-24T05:02:13;12.20;;;2.30;;
49834;SDS011;35729;52.090;13.162;2023-02-24T05:04:41;17.63;;;3.60;;
49834;SDS011;35729;52.090;13.162;2023-02-24T05:07:13;8.98;;;2.45;;
49834;SDS011;35729;52.090;13.162;2023-02-24T05:09:41;8.63;;;1.95;;
49834;SDS011;35729;52.090;13.162;2023-02-24T05:12:11;15.57;;;2.25;;
49834;SDS011;35729;52.090;13.162;2023-02-24T05:14:42;11.73;;;1.73;;
49834;SDS011;35729;52.090;13.162;2023-02-24T05:17:13;14.50;;;2.28;;
49834;SDS011;35729;52.090;13.162;2023-02-24T05:19:42;9.93;;;2.08;;
49834;SDS011;35729;52.090;13.162;2023-02-24T05:22:30;8.88;;;1.90;;
49834;SDS011;35729;52.090;13.162;2023-02-24T05:24:58;13.32;;;2.15;;
49834;SDS011;35729;52.090;13.162;2023-02-24T05:27:26;8.98;;;1.52;;
49834;SDS011;35729;52.090;13.162;2023-02-24T05:29:57;11.23;;;1.60;;
49834;SDS011;35729;52.090;13.162;2023-02-24T05:32:26;10.10;;;2.17;;
49834;SDS011;35729;52.090;13.162;2023-02-24T05:34:58;9.57;;;2.28;;
49834;SDS011;35729;52.090;13.162;2023-02-24T05:37:27;10.55;;;1.75;;
49834;SDS011;35729;52.090;13.162;2023-02-24T05:39:55;14.45;;;1.98;;
49834;SDS011;35729;52.090;13.162;2023-02-24T05:42:24;14.52;;;2.42;;
49834;SDS011;35729;52.090;13.162;2023-02-24T05:45:01;18.75;;;2.80;;
49834;SDS011;35729;52.090;13.162;2023-02-24T05:47:30;12.32;;;2.63;;
49834;SDS011;35729;52.090;13.162;2023-02-24T05:50:00;17.60;;;2.55;;
49834;SDS011;35729;52.090;13.162;2023-02-24T05:52:29;13.30;;;2.22;;
49834;SDS011;35729;52.090;13.162;2023-02-24T05:54:59;13.10;;;1.85;;
49834;SDS011;35729;52.090;13.162;2023-02-24T05:57:31;10.70;;;2.10;;
49834;SDS011;35729;52.090;13.162;2023-02-24T06:00:04;9.38;;;1.65;;
49834;SDS011;35729;52.090;13.162;2023-02-24T06:02:40;12.45;;;2.28;;
49834;SDS011;35729;52.090;13.162;2023-02-24T06:05:14;9.23;;;2.20;;
49834;SDS011;35729;52.090;13.162;2023-02-24T06:07:49;12.20;;;1.80;;
49834;SDS011;35729;52.090;13.162;2023-02-24T06:10:28;13.82;;;2.50;;
49834;SDS011;35729;52.090;13.162;2023-02-24T06:12:59;13.85;;;2.25;;
49834;SDS011;35729;52.090;13.162;2023-02-24T06:15:33;8.43;;;2.10;;
49834;SDS011;35729;52.090;13.162;2023-02-24T06:18:01;11.10;;;2.15;;
49834;SDS011;35729;52.090;13.162;2023-02-24T06:20:31;9.88;;;1.80;;
49834;SDS011;35729;52.090;13.162;2023-02-24T06:23:00;9.68;;;1.70;;
49834;SDS011;35729;52.090;13.162;2023-02-24T06:25:35;11.13;;;2.25;;
49834;SDS011;35729;52.090;13.162;2023-02-24T06:28:04;10.95;;;1.60;;
49834;SDS011;35729;52.090;13.162;2023-02-24T06:30:36;12.25;;;2.40;;
49834;SDS011;35729;52.090;13.162;2023-02-24T06:33:05;6.15;;;2.22;;
49834;SDS011;35729;52.090;13.162;2023-02-24T06:35:34;11.80;;;2.28;;
49834;SDS011;35729;52.090;13.162;2023-02-24T06:38:03;11.65;;;2.20;;
49834;SDS011;35729;52.090;13.162;2023-02-24T06:40:31;12.07;;;2.30;;
49834;SDS011;35729;52.090;13.162;2023-02-24T06:43:01;16.73;;;3.63;;
49834;SDS011;35729;52.090;13.162;2023-02-24T06:45:30;14.15;;;2.17;;
49834;SDS011;35729;52.090;13.162;2023-02-24T06:48:02;8.00;;;2.22;;
49834;SDS011;35729;52.090;13.162;2023-02-24T06:50:32;10.27;;;2.40;;
49834;SDS011;35729;52.090;13.162;2023-02-24T06:53:02;11.55;;;2.13;;
49834;SDS011;35729;52.090;13.162;2023-02-24T06:55:40;9.95;;;2.15;;
49834;SDS011;35729;52.090;13.162;2023-02-24T06:58:13;10.55;;;2.40;;
49834;SDS011;35729;52.090;13.162;2023-02-24T07:00:44;10.55;;;2.55;;
49834;SDS011;35729;52.090;13.162;2023-02-24T07:03:23;9.57;;;2.22;;
49834;SDS011;35729;52.090;13.162;2023-02-24T07:06:03;5.60;;;1.60;;
49834;SDS011;35729;52.090;13.162;2023-02-24T07:08:45;15.23;;;1.95;;
49834;SDS011;35729;52.090;13.162;2023-02-24T07:11:14;14.57;;;3.33;;
49834;SDS011;35729;52.090;13.162;2023-02-24T07:13:44;10.05;;;2.65;;
49834;SDS011;35729;52.090;13.162;2023-02-24T07:16:14;10.45;;;2.75;;
49834;SDS011;35729;52.090;13.162;2023-02-24T07:18:46;18.10;;;2.88;;
49834;SDS011;35729;52.090;13.162;2023-02-24T07:21:15;7.78;;;1.65;;
49834;SDS011;35729;52.090;13.162;2023-02-24T07:23:44;9.27;;;2.40;;
49834;SDS011;35729;52.090;13.162;2023-02-24T07:26:14;13.18;;;2.85;;
49834;SDS011;35729;52.090;13.162;2023-02-24T07:28:47;5.67;;;1.87;;
49834;SDS011;35729;52.090;13.162;2023-02-24T07:31:16;11.90;;;1.98;;
49834;SDS011;35729;52.090;13.162;2023-02-24T07:33:51;4.38;;;1.90;;
49834;SDS011;35729;52.090;13.162;2023-02-24T07:36:21;14.25;;;2.35;;
49834;SDS011;35729;52.090;13.162;2023-02-24T07:38:54;11.63;;;2.60;;
49834;SDS011;35729;52.090;13.162;2023-02-24T07:41:26;11.95;;;3.65;;
49834;SDS011;35729;52.090;13.162;2023-02-24T07:43:55;8.05;;;2.10;;
49834;SDS011;35729;52.090;13.162;2023-02-24T07:46:27;11.23;;;2.58;;
49834;SDS011;35729;52.090;13.162;2023-02-24T07:49:00;9.75;;;2.13;;
49834;SDS011;35729;52.090;13.162;2023-02-24T07:51:29;8.05;;;2.05;;
49834;SDS011;35729;52.090;13.162;2023-02-24T07:53:58;9.68;;;2.10;;
49834;SDS011;35729;52.090;13.162;2023-02-24T07:56:28;5.82;;;1.70;;
49834;SDS011;35729;52.090;13.162;2023-02-24T07:59:00;10.55;;;1.90;;
49834;SDS011;35729;52.090;13.162;2023-02-24T08:01:33;8.65;;;1.98;;
49834;SDS011;35729;52.090;13.162;2023-02-24T08:04:06;8.60;;;1.77;;
49834;SDS011;35729;52.090;13.162;2023-02-24T08:06:40;9.82;;;2.15;;
49834;SDS011;35729;52.090;13.162;2023-02-24T08:12:06;9.50;;;2.03;;
49834;SDS011;35729;52.090;13.162;2023-02-24T08:14:34;10.48;;;2.22;;
49834;SDS011;35729;52.090;13.162;2023-02-24T08:17:09;9.73;;;2.33;;
49834;SDS011;35729;52.090;13.162;2023-02-24T08:19:46;7.68;;;1.65;;
49834;SDS011;35729;52.090;13.162;2023-02-24T08:22:36;7.25;;;1.65;;
49834;SDS011;35729;52.090;13.162;2023-02-24T08:25:08;12.90;;;3.05;;
49834;SDS011;35729;52.090;13.162;2023-02-24T08:30:11;6.75;;;2.13;;
49834;SDS011;35729;52.090;13.162;2023-02-24T08:32:47;7.60;;;1.90;;
49834;SDS011;35729;52.090;13.162;2023-02-24T08:35:24;7.38;;;2.22;;
49834;SDS011;35729;52.090;13.162;2023-02-24T08:37:57;10.02;;;2.13;;
49834;SDS011;35729;52.090;13.162;2023-02-24T08:40:29;8.93;;;2.17;;
49834;SDS011;35729;52.090;13.162;2023-02-24T08:43:15;9.45;;;2.60;;
49834;SDS011;35729;52.090;13.162;2023-02-24T08:45:56;4.82;;;2.25;;
49834;SDS011;35729;52.090;13.162;2023-02-24T08:48:28;7.05;;;2.58;;
49834;SDS011;35729;52.090;13.162;2023-02-24T08:51:10;7.20;;;2.30;;
49834;SDS011;35729;52.090;13.162;2023-02-24T08:53:41;7.75;;;2.30;;
49834;SDS011;35729;52.090;13.162;2023-02-24T08:56:12;7.47;;;2.25;;
49834;SDS011;35729;52.090;13.162;2023-02-24T08:58:48;9.40;;;2.80;;
49834;SDS011;35729;52.090;13.162;2023-02-24T09:01:22;4.90;;;2.20;;
49834;SDS011;35729;52.090;13.162;2023-02-24T09:03:53;7.75;;;2.50;;
49834;SDS011;35729;52.090;13.162;2023-02-24T09:06:33;11.68;;;2.85;;
49834;SDS011;35729;52.090;13.162;2023-02-24T09:09:05;6.85;;;2.20;;
49834;SDS011;35729;52.090;13.162;2023-02-24T09:11:47;7.30;;;2.70;;
49834;SDS011;35729;52.090;13.162;2023-02-24T09:14:20;9.93;;;2.90;;
49834;SDS011;35729;52.090;13.162;2023-02-24T09:16:51;9.98;;;3.17;;
49834;SDS011;35729;52.090;13.162;2023-02-24T09:19:30;7.03;;;2.78;;
49834;SDS011;35729;52.090;13.162;2023-02-24T09:22:30;10.75;;;3.03;;
49834;SDS011;35729;52.090;13.162;2023-02-24T09:24:57;9.95;;;3.60;;
49834;SDS011;35729;52.090;13.162;2023-02-24T09:27:39;10.57;;;2.95;;
49834;SDS011;35729;52.090;13.162;2023-02-24T09:30:09;13.52;;;5.40;;
49834;SDS011;35729;52.090;13.162;2023-02-24T09:32:58;11.20;;;4.28;;
49834;SDS011;35729;52.090;13.162;2023-02-24T09:35:27;11.68;;;4.50;;
49834;SDS011;35729;52.090;13.162;2023-02-24T09:38:03;12.80;;;4.20;;
49834;SDS011;35729;52.090;13.162;2023-02-24T09:40:32;9.45;;;3.38;;
49834;SDS011;35729;52.090;13.162;2023-02-24T09:43:13;11.77;;;2.95;;
49834;SDS011;35729;52.090;13.162;2023-02-24T09:45:45;11.00;;;2.90;;
49834;SDS011;35729;52.090;13.162;2023-02-24T09:48:24;11.50;;;2.70;;
49834;SDS011;35729;52.090;13.162;2023-02-24T09:50:58;18.98;;;6.35;;
49834;SDS011;35729;52.090;13.162;2023-02-24T09:53:33;14.30;;;5.22;;
49834;SDS011;35729;52.090;13.162;2023-02-24T09:56:16;12.25;;;4.22;;
49834;SDS011;35729;52.090;13.162;2023-02-24T09:58:51;10.13;;;3.90;;
49834;SDS011;35729;52.090;13.162;2023-02-24T10:04:32;12.20;;;4.35;;
49834;SDS011;35729;52.090;13.162;2023-02-24T10:07:13;13.63;;;4.40;;
49834;SDS011;35729;52.090;13.162;2023-02-24T10:09:48;17.55;;;6.03;;
49834;SDS011;35729;52.090;13.162;2023-02-24T10:12:21;18.73;;;7.38;;
49834;SDS011;35729;52.090;13.162;2023-02-24T10:14:55;11.18;;;3.55;;
49834;SDS011;35729;52.090;13.162;2023-02-24T10:17:40;8.52;;;2.63;;
49834;SDS011;35729;52.090;13.162;2023-02-24T10:20:14;7.03;;;2.67;;
49834;SDS011;35729;52.090;13.162;2023-02-24T10:22:56;5.30;;;2.95;;
49834;SDS011;35729;52.090;13.162;2023-02-24T10:25:39;7.95;;;2.70;;
49834;SDS011;35729;52.090;13.162;2023-02-24T10:28:19;5.82;;;2.22;;
49834;SDS011;35729;52.090;13.162;2023-02-24T10:31:02;10.40;;;1.90;;
49834;SDS011;35729;52.090;13.162;2023-02-24T10:33:48;6.20;;;2.42;;
49834;SDS011;35729;52.090;13.162;2023-02-24T10:36:23;4.82;;;1.50;;
49834;SDS011;35729;52.090;13.162;2023-02-24T10:38:59;6.78;;;2.55;;
49834;SDS011;35729;52.090;13.162;2023-02-24T10:41:47;6.45;;;2.20;;
49834;SDS011;35729;52.090;13.162;2023-02-24T10:44:21;4.47;;;1.65;;
49834;SDS011;35729;52.090;13.162;2023-02-24T10:46:58;7.30;;;2.60;;
49834;SDS011;35729;52.090;13.162;2023-02-24T10:49:39;7.38;;;2.22;;
49834;SDS011;35729;52.090;13.162;2023-02-24T10:52:21;8.05;;;2.65;;
49834;SDS011;35729;52.090;13.162;2023-02-24T10:55:19;7.77;;;2.93;;
49834;SDS011;35729;52.090;13.162;2023-02-24T10:58:10;6.35;;;2.75;;
49834;SDS011;35729;52.090;13.162;2023-02-24T11:00:52;7.18;;;2.08;;
49834;SDS011;35729;52.090;13.162;2023-02-24T11:03:46;6.30;;;2.63;;
49834;SDS011;35729;52.090;13.162;2023-02-24T11:06:26;7.22;;;2.20;;
49834;SDS011;35729;52.090;13.162;2023-02-24T11:09:14;7.53;;;2.58;;
49834;SDS011;35729;52.090;13.162;2023-02-24T11:11:57;10.23;;;2.00;;
49834;SDS011;35729;52.090;13.162;2023-02-24T11:14:48;4.40;;;1.90;;
49834;SDS011;35729;52.090;13.162;2023-02-24T11:17:30;8.40;;;1.88;;
49834;SDS011;35729;52.090;13.162;2023-02-24T11:20:00;7.45;;;1.63;;
49834;SDS011;35729;52.090;13.162;2023-02-24T11:22:42;5.03;;;1.63;;
49834;SDS011;35729;52.090;13.162;2023-02-24T11:25:21;7.90;;;1.92;;
49834;SDS011;35729;52.090;13.162;2023-02-24T11:27:51;6.10;;;1.38;;
49834;SDS011;35729;52.090;13.162;2023-02-24T11:30:28;4.35;;;1.60;;
49834;SDS011;35729;52.090;13.162;2023-02-24T11:33:16;7.60;;;2.13;;
49834;SDS011;35729;52.090;13.162;2023-02-24T11:35:55;9.60;;;1.95;;
49834;SDS011;35729;52.090;13.162;2023-02-24T11:38:36;6.78;;;1.83;;
49834;SDS011;35729;52.090;13.162;2023-02-24T11:41:09;5.05;;;1.45;;
49834;SDS011;35729;52.090;13.162;2023-02-24T11:43:48;7.88;;;2.25;;
49834;SDS011;35729;52.090;13.162;2023-02-24T11:46:30;7.70;;;1.77;;
49834;SDS011;35729;52.090;13.162;2023-02-24T11:49:04;7.32;;;2.30;;
49834;SDS011;35729;52.090;13.162;2023-02-24T11:51:44;6.40;;;1.65;;
49834;SDS011;35729;52.090;13.162;2023-02-24T11:54:14;11.63;;;1.70;;
49834;SDS011;35729;52.090;13.162;2023-02-24T11:56:44;4.35;;;1.48;;
49834;SDS011;35729;52.090;13.162;2023-02-24T11:59:15;5.57;;;1.40;;
49834;SDS011;35729;52.090;13.162;2023-02-24T12:01:51;8.05;;;1.40;;
49834;SDS011;35729;52.090;13.162;2023-02-24T12:04:28;3.80;;;1.20;;
49834;SDS011;35729;52.090;13.162;2023-02-24T12:07:00;7.63;;;1.45;;
49834;SDS011;35729;52.090;13.162;2023-02-24T12:09:35;7.05;;;1.27;;
49834;SDS011;35729;52.090;13.162;2023-02-24T12:12:12;7.82;;;1.73;;
49834;SDS011;35729;52.090;13.162;2023-02-24T12:14:49;3.88;;;1.05;;
49834;SDS011;35729;52.090;13.162;2023-02-24T12:17:25;5.30;;;1.10;;
49834;SDS011;35729;52.090;13.162;2023-02-24T12:20:01;9.55;;;2.10;;
49834;SDS011;35729;52.090;13.162;2023-02-24T12:22:39;7.57;;;1.95;;
49834;SDS011;35729;52.090;13.162;2023-02-24T12:25:15;9.43;;;2.00;;
49834;SDS011;35729;52.090;13.162;2023-02-24T12:27:56;11.70;;;2.63;;
49834;SDS011;35729;52.090;13.162;2023-02-24T12:30:40;8.25;;;2.10;;
49834;SDS011;35729;52.090;13.162;2023-02-24T12:36:23;5.97;;;1.60;;
49834;SDS011;35729;52.090;13.162;2023-02-24T12:39:09;8.60;;;2.03;;
49834;SDS011;35729;52.090;13.162;2023-02-24T12:41:48;8.48;;;2.58;;
49834;SDS011;35729;52.090;13.162;2023-02-24T12:44:29;10.32;;;2.15;;
49834;SDS011;35729;52.090;13.162;2023-02-24T12:47:07;5.60;;;1.52;;
49834;SDS011;35729;52.090;13.162;2023-02-24T12:49:49;9.30;;;2.60;;
49834;SDS011;35729;52.090;13.162;2023-02-24T12:52:39;6.20;;;1.80;;
49834;SDS011;35729;52.090;13.162;2023-02-24T12:55:17;9.43;;;1.88;;
49834;SDS011;35729;52.090;13.162;2023-02-24T12:57:51;6.30;;;1.60;;
49834;SDS011;35729;52.090;13.162;2023-02-24T13:00:29;6.72;;;2.13;;
49834;SDS011;35729;52.090;13.162;2023-02-24T13:03:06;7.63;;;2.00;;
49834;SDS011;35729;52.090;13.162;2023-02-24T13:08:28;4.32;;;2.15;;
49834;SDS011;35729;52.090;13.162;2023-02-24T13:11:08;8.68;;;2.50;;
49834;SDS011;35729;52.090;13.162;2023-02-24T13:13:48;7.95;;;2.40;;
49834;SDS011;35729;52.090;13.162;2023-02-24T13:16:26;7.03;;;2.33;;
49834;SDS011;35729;52.090;13.162;2023-02-24T13:19:03;8.65;;;1.92;;
49834;SDS011;35729;52.090;13.162;2023-02-24T13:21:35;6.63;;;2.53;;
49834;SDS011;35729;52.090;13.162;2023-02-24T13:24:04;7.25;;;2.22;;
49834;SDS011;35729;52.090;13.162;2023-02-24T13:26:33;10.10;;;2.88;;
49834;SDS011;35729;52.090;13.162;2023-02-24T13:29:02;5.55;;;2.13;;
49834;SDS011;35729;52.090;13.162;2023-02-24T13:31:39;13.93;;;2.20;;
49834;SDS011;35729;52.090;13.162;2023-02-24T13:34:13;6.78;;;2.83;;
49834;SDS011;35729;52.090;13.162;2023-02-24T13:36:58;4.72;;;2.50;;
49834;SDS011;35729;52.090;13.162;2023-02-24T13:39:30;5.05;;;2.40;;
49834;SDS011;35729;52.090;13.162;2023-02-24T13:44:31;6.97;;;2.63;;
49834;SDS011;35729;52.090;13.162;2023-02-24T13:47:15;8.43;;;2.35;;
49834;SDS011;35729;52.090;13.162;2023-02-24T13:50:13;9.38;;;2.40;;
49834;SDS011;35729;52.090;13.162;2023-02-24T13:55:48;5.05;;;2.30;;
49834;SDS011;35729;52.090;13.162;2023-02-24T14:01:20;7.05;;;2.35;;
49834;SDS011;35729;52.090;13.162;2023-02-24T14:04:00;7.50;;;3.20;;
49834;SDS011;35729;52.090;13.162;2023-02-24T14:06:32;5.88;;;2.42;;
49834;SDS011;35729;52.090;13.162;2023-02-24T14:09:04;9.02;;;2.47;;
49834;SDS011;35729;52.090;13.162;2023-02-24T14:11:35;6.95;;;2.80;;
49834;SDS011;35729;52.090;13.162;2023-02-24T14:14:04;5.65;;;2.70;;
49834;SDS011;35729;52.090;13.162;2023-02-24T14:16:33;7.88;;;3.15;;
49834;SDS011;35729;52.090;13.162;2023-02-24T14:19:08;9.23;;;3.50;;
49834;SDS011;35729;52.090;13.162;2023-02-24T14:21:45;4.47;;;2.55;;
49834;SDS011;35729;52.090;13.162;2023-02-24T14:24:25;5.25;;;3.00;;
49834;SDS011;35729;52.090;13.162;2023-02-24T14:26:55;7.85;;;3.40;;
49834;SDS011;35729;52.090;13.162;2023-02-24T14:29:26;5.80;;;3.22;;
49834;SDS011;35729;52.090;13.162;2023-02-24T14:31:56;8.70;;;3.92;;
49834;SDS011;35729;52.090;13.162;2023-02-24T14:34:26;5.82;;;3.38;;
49834;SDS011;35729;52.090;13.162;2023-02-24T14:36:58;6.93;;;3.13;;
49834;SDS011;35729;52.090;13.162;2023-02-24T14:39:31;9.85;;;3.45;;
49834;SDS011;35729;52.090;13.162;2023-02-24T14:42:09;5.70;;;3.38;;
49834;SDS011;35729;52.090;13.162;2023-02-24T14:44:40;9.65;;;3.67;;
49834;SDS011;35729;52.090;13.162;2023-02-24T14:47:10;6.57;;;3.85;;
49834;SDS011;35729;52.090;13.162;2023-02-24T14:49:40;6.45;;;3.95;;
49834;SDS011;35729;52.090;13.162;2023-02-24T14:52:13;8.23;;;4.47;;
49834;SDS011;35729;52.090;13.162;2023-02-24T14:54:50;10.43;;;5.00;;
49834;SDS011;35729;52.090;13.162;2023-02-24T14:57:23;9.80;;;4.35;;
49834;SDS011;35729;52.090;13.162;2023-02-24T14:59:56;8.15;;;4.45;;
49834;SDS011;35729;52.090;13.162;2023-02-24T15:02:35;6.82;;;3.30;;
49834;SDS011;35729;52.090;13.162;2023-02-24T15:05:06;8.05;;;4.90;;
49834;SDS011;35729;52.090;13.162;2023-02-24T15:07:37;4.85;;;3.90;;
49834;SDS011;35729;52.090;13.162;2023-02-24T15:10:15;5.65;;;3.35;;
49834;SDS011;35729;52.090;13.162;2023-02-24T15:12:47;6.05;;;3.67;;
49834;SDS011;35729;52.090;13.162;2023-02-24T15:15:19;8.60;;;4.75;;
49834;SDS011;35729;52.090;13.162;2023-02-24T15:17:52;6.75;;;4.97;;
49834;SDS011;35729;52.090;13.162;2023-02-24T15:20:29;7.05;;;4.40;;
49834;SDS011;35729;52.090;13.162;2023-02-24T15:23:00;6.38;;;4.18;;
49834;SDS011;35729;52.090;13.162;2023-02-24T15:25:39;6.75;;;4.93;;
49834;SDS011;35729;52.090;13.162;2023-02-24T15:28:20;6.32;;;4.90;;
49834;SDS011;35729;52.090;13.162;2023-02-24T15:30:53;9.15;;;5.30;;
49834;SDS011;35729;52.090;13.162;2023-02-24T15:33:28;6.85;;;4.53;;
49834;SDS011;35729;52.090;13.162;2023-02-24T15:36:03;9.95;;;5.65;;
49834;SDS011;35729;52.090;13.162;2023-02-24T15:38:34;9.10;;;4.15;;